Terminal Aerodrome Forecast
Issued by NWS

Home | Current Version | Previous Version | Text Only | Print | Product List | Glossary On
Versions: 1 2 3 4 5 6 7 8 9 10 11 12 13 14 15 16 17 18 19 20 21 22 23
610
FTUS44 KMAF 240736 AAD
TAFPEQ
TAF AMD
KPEQ 240736Z 2408/2506 24009KT P6SM SCT250
     FM241700 27030G40KT 6SM BLDU FEW250
     FM250100 28009KT P6SM SKC=

USA.gov is the U.S. government's official web portal to all federal, state and local government web resources and services.